Hutchinson County Airport - Borger, Texas, United States - FAA: BGD - ICAO: KBGD - IATA: BGD

 
  Longest Runway: 6,300 feet   Approach Types:    Customs Landing Rights Airport: No   Port of Entry: No

Local Forecast

Tonight (1/27): Mostly clear, with a low around 45. South southwest wind 10 to 15 mph.

Wednesday (1/28): Sunny, with a high near 73. West southwest wind 10 to 15 mph becoming north in the afternoon. Winds could gust as high as 20 mph.

Wednesday Night (1/28): Partly cloudy, with a low around 39. North wind 5 to 10 mph.

Thursday (1/29): Partly sunny, with a high near 54. Wind chill values between 31 and 41 early. North wind 10 to 15 mph, with gusts as high as 25 mph.

Thursday Night (1/29): Mostly cloudy, with a low around 30. North northeast wind 5 to 10 mph becoming southeast after midnight.

Friday (1/30): A chance of rain before noon, then a chance of rain and snow. Cloudy, with a high near 42. South southeast wind 5 to 10 mph. Chance of precipitation is 40%.

Friday Night (1/30): Snow likely. Cloudy, with a low around 31. South southeast wind 5 to 10 mph. Chance of precipitation is 60%.



Current Weather (METAR)

2015/01/28 00:51 KBGD 280051Z AUTO 19008KT 10SM CLR 18/02 A3008 RMK AO2 SLP172 T01780022

BORGER HUTCHINSON CO AIRPORT , TX, United States (KBGD) 35-42N 101-24W 927M Jan 27, 2015 - 07:51 PM EST / 2015.01.28 0051 UTC Wind: from the S (190 degrees) at 9 MPH (8 KT):0 Visibility: 10 mile(s):0 Sky conditions: clear Temperature: 64.0 F (17.8 C) Dew Point: 36.0 F (2.2 C) Relative Humidity: 35% Pressure (altimeter): 30.08 in. Hg (1018 hPa) ob: KBGD 280051Z AUTO 19008KT 10SM CLR 18/02 A3008 RMK AO2 SLP172 T01780022 cycle: 1

Terminal Forecast (TAF)